Time;durP1;ratioP1;P1;durP2;ratioP2;P2;SDS_P1;SDS_P2;PMS_P1;PMS_P2;Temp;Humidity;BMP_temperature;BMP_pressure;BME280_temperature;BME280_humidity;BME280_pressure;Samples;Min_cycle;Max_cycle;Signal;HPM_P1;HPM_P2
2021/07/01 00:00:20;;;;;;;31.20;12.23;;;;;;;;;;5067568;28;20443;-69
2021/07/01 00:02:46;;;;;;;37.15;12.60;;;;;;;;;;5060584;28;20044;-69
2021/07/01 00:05:15;;;;;;;33.72;13.98;;;;;;;;;;5063189;28;20048;-69
2021/07/01 00:07:42;;;;;;;28.38;12.68;;;;;;;;;;5064044;28;20483;-69
2021/07/01 00:10:09;;;;;;;30.98;12.93;;;;;;;;;;5066919;28;20361;-69
2021/07/01 00:12:35;;;;;;;33.47;13.02;;;;;;;;;;5068088;28;20392;-69
2021/07/01 00:15:02;;;;;;;40.72;13.68;;;;;;;;;;5066835;28;20139;-69
2021/07/01 00:17:28;;;;;;;33.80;12.93;;;;;;;;;;5065424;28;20048;-69
2021/07/01 00:19:54;;;;;;;37.88;15.10;;;;;;;;;;5068886;28;20052;-69
2021/07/01 00:22:20;;;;;;;37.80;15.15;;;;;;;;;;5066385;28;20063;-69
2021/07/01 00:24:47;;;;;;;37.17;14.00;;;;;;;;;;5067794;28;20064;-69
2021/07/01 00:27:13;;;;;;;37.03;16.30;;;;;;;;;;5064626;28;20094;-69
2021/07/01 00:29:39;;;;;;;37.85;15.25;;;;;;;;;;5061877;28;20036;-69
2021/07/01 00:32:05;;;;;;;32.45;14.68;;;;;;;;;;5062402;28;20064;-70
2021/07/01 00:34:32;;;;;;;46.28;15.45;;;;;;;;;;5068261;28;20107;-69
2021/07/01 00:36:59;;;;;;;39.25;15.57;;;;;;;;;;5067298;28;20048;-69
2021/07/01 00:39:26;;;;;;;34.45;15.43;;;;;;;;;;5066287;28;20559;-70
2021/07/01 00:41:52;;;;;;;40.03;15.52;;;;;;;;;;5063795;28;20051;-70
2021/07/01 00:44:18;;;;;;;43.47;17.45;;;;;;;;;;5060248;28;20062;-69
2021/07/01 00:46:44;;;;;;;39.83;16.00;;;;;;;;;;5048321;28;20052;-70
2021/07/01 00:49:10;;;;;;;39.25;16.48;;;;;;;;;;5060802;28;20053;-70
2021/07/01 00:51:36;;;;;;;48.75;17.65;;;;;;;;;;5063259;28;20090;-70
2021/07/01 00:54:03;;;;;;;39.10;16.85;;;;;;;;;;5062823;28;20123;-69
2021/07/01 00:56:29;;;;;;;53.55;18.73;;;;;;;;;;5064703;28;20173;-69
2021/07/01 00:59:03;;;;;;;53.00;18.65;;;;;;;;;;5061821;28;20052;-69
2021/07/01 01:01:30;;;;;;;47.53;18.65;;;;;;;;;;5065719;28;20047;-70
2021/07/01 01:03:56;;;;;;;46.47;18.77;;;;;;;;;;5065949;28;20058;-69
2021/07/01 01:06:23;;;;;;;50.22;19.20;;;;;;;;;;5065004;28;20146;-69
2021/07/01 01:08:49;;;;;;;51.78;18.65;;;;;;;;;;5044849;28;20063;-70
2021/07/01 01:11:15;;;;;;;53.92;20.45;;;;;;;;;;5065304;28;20045;-70
2021/07/01 01:13:43;;;;;;;57.40;19.73;;;;;;;;;;5063770;28;20427;-69
2021/07/01 01:16:09;;;;;;;57.65;20.63;;;;;;;;;;5063798;28;20749;-69
2021/07/01 01:18:35;;;;;;;57.20;19.67;;;;;;;;;;5059782;28;20435;-70
2021/07/01 01:21:02;;;;;;;55.85;19.90;;;;;;;;;;5063904;28;20116;-69
2021/07/01 01:23:29;;;;;;;46.05;20.35;;;;;;;;;;5062489;28;20045;-69
2021/07/01 01:25:58;;;;;;;52.30;20.77;;;;;;;;;;5063362;28;20060;-69
2021/07/01 01:28:24;;;;;;;53.20;20.60;;;;;;;;;;5063337;28;20053;-69
2021/07/01 01:30:50;;;;;;;52.88;21.50;;;;;;;;;;5056722;28;20098;-70
2021/07/01 01:33:17;;;;;;;63.53;21.35;;;;;;;;;;5062028;28;20049;-70
2021/07/01 01:35:43;;;;;;;53.38;20.90;;;;;;;;;;5059967;28;20071;-69
2021/07/01 01:38:10;;;;;;;53.67;20.50;;;;;;;;;;5059339;28;20063;-69
2021/07/01 01:40:38;;;;;;;63.17;24.08;;;;;;;;;;5056227;28;20074;-70
2021/07/01 01:43:04;;;;;;;61.83;22.60;;;;;;;;;;5059384;28;20146;-69
2021/07/01 01:45:30;;;;;;;60.58;23.33;;;;;;;;;;5043401;28;20451;-69
2021/07/01 01:47:56;;;;;;;75.50;25.38;;;;;;;;;;5065699;28;20567;-70
2021/07/01 01:50:24;;;;;;;55.80;23.85;;;;;;;;;;5066573;28;20085;-70
2021/07/01 01:52:51;;;;;;;66.25;23.80;;;;;;;;;;5062967;28;20193;-69
2021/07/01 01:55:18;;;;;;;61.20;23.23;;;;;;;;;;5066043;28;20120;-70
2021/07/01 01:57:45;;;;;;;66.25;23.77;;;;;;;;;;5062624;28;20040;-69
2021/07/01 02:00:12;;;;;;;63.92;23.10;;;;;;;;;;5059471;28;20033;-70
2021/07/01 02:02:39;;;;;;;62.28;22.88;;;;;;;;;;5059803;28;20155;-69
2021/07/01 02:05:06;;;;;;;59.95;22.58;;;;;;;;;;5056311;28;20037;-69
2021/07/01 02:07:33;;;;;;;62.28;22.88;;;;;;;;;;5057416;28;20045;-70
2021/07/01 02:09:59;;;;;;;60.60;24.02;;;;;;;;;;5060510;28;20412;-70
2021/07/01 02:12:25;;;;;;;58.28;22.70;;;;;;;;;;5056376;28;20127;-69
2021/07/01 02:14:52;;;;;;;71.68;23.05;;;;;;;;;;5058964;28;20037;-70
2021/07/01 02:17:18;;;;;;;58.80;25.05;;;;;;;;;;5061212;28;20126;-70
2021/07/01 02:19:44;;;;;;;63.63;23.13;;;;;;;;;;5064128;28;20480;-69
2021/07/01 02:22:10;;;;;;;57.08;23.75;;;;;;;;;;5065393;28;20062;-69
2021/07/01 02:24:37;;;;;;;64.40;21.75;;;;;;;;;;5065152;28;20040;-70
2021/07/01 02:27:12;;;;;;;68.88;21.95;;;;;;;;;;5060592;28;20064;-70
2021/07/01 02:29:38;;;;;;;63.38;21.90;;;;;;;;;;5062886;28;20059;-70
2021/07/01 02:32:04;;;;;;;59.67;21.27;;;;;;;;;;5062454;28;20033;-70
2021/07/01 02:34:31;;;;;;;62.50;22.85;;;;;;;;;;5061678;28;20041;-70
2021/07/01 02:36:57;;;;;;;58.55;22.08;;;;;;;;;;5053680;28;20091;-69
2021/07/01 02:39:23;;;;;;;51.47;21.05;;;;;;;;;;5058169;28;20056;-70
2021/07/01 02:41:50;;;;;;;58.20;22.63;;;;;;;;;;5037146;28;20106;-70
2021/07/01 02:44:16;;;;;;;53.20;22.10;;;;;;;;;;5058765;28;20037;-70
2021/07/01 02:46:44;;;;;;;68.78;23.60;;;;;;;;;;5055903;28;20499;-70
2021/07/01 02:49:11;;;;;;;61.85;22.20;;;;;;;;;;5062333;28;20552;-70
2021/07/01 02:51:37;;;;;;;55.30;21.77;;;;;;;;;;5065076;28;20137;-70
2021/07/01 02:54:03;;;;;;;50.45;21.33;;;;;;;;;;5065832;28;20036;-70
2021/07/01 02:56:40;;;;;;;52.42;23.27;;;;;;;;;;5064296;28;20074;-70
2021/07/01 02:59:07;;;;;;;56.03;23.55;;;;;;;;;;5057582;28;20467;-69
2021/07/01 03:01:34;;;;;;;57.47;22.15;;;;;;;;;;5058176;28;20033;-69
2021/07/01 03:04:00;;;;;;;52.42;21.38;;;;;;;;;;5058452;28;20151;-70
2021/07/01 03:06:26;;;;;;;55.17;22.00;;;;;;;;;;5060369;28;20047;-70
2021/07/01 03:08:54;;;;;;;64.95;23.45;;;;;;;;;;5064685;28;21259;-69
2021/07/01 03:11:20;;;;;;;56.03;21.80;;;;;;;;;;5056918;28;20126;-69
2021/07/01 03:13:46;;;;;;;61.17;23.48;;;;;;;;;;5056548;28;20404;-70
2021/07/01 03:16:16;;;;;;;49.22;22.30;;;;;;;;;;5054254;28;20052;-69
2021/07/01 03:18:42;;;;;;;60.67;24.02;;;;;;;;;;5053491;28;20422;-70
2021/07/01 03:21:09;;;;;;;48.30;21.02;;;;;;;;;;5056983;28;20131;-70
2021/07/01 03:23:35;;;;;;;54.75;21.52;;;;;;;;;;5059721;28;20071;-70
2021/07/01 03:26:01;;;;;;;45.13;21.38;;;;;;;;;;5064096;28;20535;-70
2021/07/01 03:28:28;;;;;;;57.53;22.30;;;;;;;;;;5063944;28;20045;-70
2021/07/01 03:30:54;;;;;;;60.25;22.92;;;;;;;;;;5057804;28;20044;-70
2021/07/01 03:33:20;;;;;;;59.30;21.45;;;;;;;;;;5065113;28;20158;-69
2021/07/01 03:35:46;;;;;;;52.05;21.75;;;;;;;;;;5063733;28;20053;-70
2021/07/01 03:38:12;;;;;;;52.95;21.92;;;;;;;;;;5062827;28;20102;-70
2021/07/01 03:40:38;;;;;;;48.50;22.38;;;;;;;;;;5068557;28;20045;-70
2021/07/01 03:43:05;;;;;;;53.17;23.00;;;;;;;;;;5068050;28;20053;-69
2021/07/01 03:45:31;;;;;;;62.45;23.05;;;;;;;;;;5042818;28;20037;-69
2021/07/01 03:47:58;;;;;;;50.35;21.80;;;;;;;;;;5061655;28;20052;-70
2021/07/01 03:50:24;;;;;;;57.67;23.10;;;;;;;;;;5042459;28;20049;-70
2021/07/01 03:52:50;;;;;;;46.22;21.02;;;;;;;;;;5061299;28;20166;-70
2021/07/01 03:55:18;;;;;;;50.83;20.77;;;;;;;;;;5063039;28;20127;-69
2021/07/01 03:57:45;;;;;;;51.10;21.80;;;;;;;;;;5064436;28;20060;-69
2021/07/01 04:00:12;;;;;;;48.55;22.50;;;;;;;;;;5062228;28;20067;-70
2021/07/01 04:02:39;;;;;;;64.90;24.00;;;;;;;;;;5064992;28;20442;-70
2021/07/01 04:05:06;;;;;;;57.30;23.90;;;;;;;;;;5066141;28;20045;-69
2021/07/01 04:07:32;;;;;;;70.57;23.25;;;;;;;;;;5065003;28;20450;-70
2021/07/01 04:10:03;;;;;;;55.67;21.63;;;;;;;;;;5067495;28;20074;-69
2021/07/01 04:12:30;;;;;;;56.83;23.45;;;;;;;;;;5062596;28;20045;-69
2021/07/01 04:14:56;;;;;;;54.78;23.90;;;;;;;;;;5060834;28;20183;-69
2021/07/01 04:17:22;;;;;;;58.75;24.60;;;;;;;;;;5062323;28;20044;-70
2021/07/01 04:19:48;;;;;;;49.28;23.65;;;;;;;;;;5061345;28;20053;-70
2021/07/01 04:22:15;;;;;;;67.07;24.58;;;;;;;;;;5062601;28;20475;-69
2021/07/01 04:24:41;;;;;;;64.97;25.83;;;;;;;;;;5061190;28;20206;-70
2021/07/01 04:27:07;;;;;;;53.65;22.02;;;;;;;;;;5059621;28;20037;-70
2021/07/01 04:29:34;;;;;;;47.92;22.95;;;;;;;;;;5062677;28;20131;-70
2021/07/01 04:32:00;;;;;;;51.35;21.88;;;;;;;;;;5060369;28;20116;-70
2021/07/01 04:34:26;;;;;;;58.75;23.13;;;;;;;;;;5062838;28;20052;-70
2021/07/01 04:36:53;;;;;;;46.28;21.17;;;;;;;;;;5065078;28;20048;-70
2021/07/01 04:39:19;;;;;;;47.90;21.55;;;;;;;;;;5068852;28;20040;-69
2021/07/01 04:41:45;;;;;;;58.20;21.33;;;;;;;;;;5060299;28;20079;-69
2021/07/01 04:44:12;;;;;;;50.33;20.70;;;;;;;;;;5057908;28;20045;-69
2021/07/01 04:46:38;;;;;;;51.22;21.38;;;;;;;;;;5069212;28;20117;-69
2021/07/01 04:49:05;;;;;;;52.35;21.95;;;;;;;;;;5062148;28;20065;-69
2021/07/01 04:51:31;;;;;;;41.90;22.80;;;;;;;;;;5070335;28;20143;-72
2021/07/01 04:53:57;;;;;;;55.97;22.55;;;;;;;;;;5042434;28;20044;-71
2021/07/01 04:56:24;;;;;;;55.38;21.70;;;;;;;;;;5060075;28;20062;-69
2021/07/01 04:58:50;;;;;;;50.40;21.63;;;;;;;;;;5067476;28;20052;-69
2021/07/01 05:01:16;;;;;;;51.92;20.75;;;;;;;;;;5063273;28;20044;-69
2021/07/01 05:03:43;;;;;;;50.97;21.08;;;;;;;;;;5062821;28;20044;-70
2021/07/01 05:06:09;;;;;;;44.03;21.20;;;;;;;;;;5062293;28;20167;-69
2021/07/01 05:08:35;;;;;;;48.22;21.15;;;;;;;;;;5065383;28;20137;-69
2021/07/01 05:11:01;;;;;;;50.65;21.65;;;;;;;;;;5065502;28;20048;-69
2021/07/01 05:13:27;;;;;;;45.25;20.52;;;;;;;;;;5060535;28;20751;-69
2021/07/01 05:15:54;;;;;;;40.40;20.17;;;;;;;;;;5056110;28;20128;-69
2021/07/01 05:18:20;;;;;;;45.95;21.23;;;;;;;;;;5061016;28;20048;-70
2021/07/01 05:20:47;;;;;;;45.80;21.60;;;;;;;;;;5058213;28;20103;-70
2021/07/01 05:23:13;;;;;;;51.38;22.63;;;;;;;;;;5059950;28;20048;-69
2021/07/01 05:25:39;;;;;;;45.83;21.42;;;;;;;;;;5062662;28;20372;-69
2021/07/01 05:28:10;;;;;;;49.70;22.33;;;;;;;;;;5061307;28;20176;-69
2021/07/01 05:30:36;;;;;;;47.42;22.67;;;;;;;;;;5061445;28;20048;-69
2021/07/01 05:33:02;;;;;;;47.20;22.90;;;;;;;;;;5061392;28;20053;-69
2021/07/01 05:35:29;;;;;;;53.00;23.05;;;;;;;;;;5060918;28;20045;-70
2021/07/01 05:37:55;;;;;;;48.63;23.40;;;;;;;;;;5058736;28;20049;-68
2021/07/01 05:40:22;;;;;;;45.35;22.70;;;;;;;;;;5059581;28;20342;-68
2021/07/01 05:42:48;;;;;;;50.97;23.08;;;;;;;;;;5055614;28;20096;-69
2021/07/01 05:45:15;;;;;;;49.50;22.98;;;;;;;;;;5055662;28;20064;-68
2021/07/01 05:47:42;;;;;;;49.72;24.23;;;;;;;;;;5056197;28;20056;-68
2021/07/01 05:50:10;;;;;;;47.13;22.70;;;;;;;;;;5051764;28;20106;-68
2021/07/01 05:52:39;;;;;;;54.28;24.95;;;;;;;;;;5050981;28;20380;-69
2021/07/01 05:55:06;;;;;;;49.70;23.83;;;;;;;;;;5054607;28;20116;-69
2021/07/01 05:57:32;;;;;;;47.25;24.17;;;;;;;;;;5054095;28;20041;-69
2021/07/01 05:59:59;;;;;;;46.60;24.30;;;;;;;;;;5056328;28;20049;-68
2021/07/01 06:02:26;;;;;;;48.10;24.58;;;;;;;;;;5053127;28;20068;-69
2021/07/01 06:04:52;;;;;;;57.45;25.85;;;;;;;;;;5054924;28;20044;-69
2021/07/01 06:07:20;;;;;;;54.50;26.52;;;;;;;;;;5069854;28;20048;-69
2021/07/01 06:09:49;;;;;;;50.67;23.45;;;;;;;;;;5070308;28;20098;-69
2021/07/01 06:12:16;;;;;;;45.92;23.73;;;;;;;;;;5070618;28;20098;-69
2021/07/01 06:14:42;;;;;;;48.40;22.63;;;;;;;;;;5069966;28;20040;-69
2021/07/01 06:17:08;;;;;;;47.67;24.50;;;;;;;;;;5070253;28;20117;-69
2021/07/01 06:19:35;;;;;;;46.35;23.15;;;;;;;;;;5070449;28;20373;-69
2021/07/01 06:22:01;;;;;;;47.85;23.17;;;;;;;;;;5069655;28;20046;-69
2021/07/01 06:24:29;;;;;;;49.53;25.00;;;;;;;;;;5070289;28;20404;-69
2021/07/01 06:26:56;;;;;;;49.53;23.35;;;;;;;;;;5069805;28;20048;-69
2021/07/01 06:29:22;;;;;;;43.05;23.15;;;;;;;;;;5068882;28;20085;-68
2021/07/01 06:31:48;;;;;;;47.25;24.10;;;;;;;;;;5070373;28;20102;-69
2021/07/01 06:34:17;;;;;;;49.60;24.00;;;;;;;;;;5069393;28;20116;-69
2021/07/01 06:36:43;;;;;;;49.75;23.65;;;;;;;;;;5070217;28;20049;-69
2021/07/01 06:39:11;;;;;;;44.58;24.23;;;;;;;;;;5070079;28;20041;-69
2021/07/01 06:41:37;;;;;;;43.80;23.20;;;;;;;;;;5069280;28;20476;-69
2021/07/01 06:44:07;;;;;;;40.28;21.63;;;;;;;;;;5070034;28;20102;-69
2021/07/01 06:46:34;;;;;;;42.28;21.42;;;;;;;;;;5069992;28;20430;-69
2021/07/01 06:49:01;;;;;;;44.72;22.60;;;;;;;;;;5056381;28;20057;-69
2021/07/01 06:51:28;;;;;;;36.88;20.83;;;;;;;;;;5051539;28;20107;-69
2021/07/01 06:53:55;;;;;;;44.17;21.45;;;;;;;;;;5028944;28;20125;-69
2021/07/01 06:56:21;;;;;;;37.60;20.10;;;;;;;;;;5051043;28;20063;-69
2021/07/01 06:58:48;;;;;;;34.25;19.63;;;;;;;;;;5054381;28;20121;-69
2021/07/01 07:01:14;;;;;;;39.33;21.35;;;;;;;;;;5056240;28;20411;-69
2021/07/01 07:03:41;;;;;;;37.10;19.27;;;;;;;;;;5054336;28;20049;-68
2021/07/01 07:06:07;;;;;;;44.55;21.60;;;;;;;;;;5056257;28;20159;-68
2021/07/01 07:08:33;;;;;;;42.67;21.55;;;;;;;;;;5055086;28;20550;-68
2021/07/01 07:11:00;;;;;;;35.92;20.95;;;;;;;;;;5053960;28;20473;-68
2021/07/01 07:13:26;;;;;;;40.17;20.88;;;;;;;;;;5055073;28;20048;-68
2021/07/01 07:15:54;;;;;;;38.20;21.58;;;;;;;;;;5032336;28;20045;-68
2021/07/01 07:18:24;;;;;;;45.00;21.83;;;;;;;;;;5052434;28;20112;-68
2021/07/01 07:20:55;;;;;;;48.95;22.70;;;;;;;;;;5053198;28;20041;-68
2021/07/01 07:23:27;;;;;;;35.60;20.20;;;;;;;;;;5052898;28;20116;-68
2021/07/01 07:25:54;;;;;;;36.50;20.13;;;;;;;;;;5032009;28;20448;-70
2021/07/01 07:28:20;;;;;;;38.28;19.38;;;;;;;;;;5044631;28;20504;-69
2021/07/01 07:30:48;;;;;;;30.25;19.08;;;;;;;;;;5052863;28;20052;-69
2021/07/01 07:33:14;;;;;;;31.27;17.13;;;;;;;;;;5053455;28;20128;-69
2021/07/01 07:35:40;;;;;;;39.47;19.30;;;;;;;;;;5053168;28;20048;-69
2021/07/01 07:38:07;;;;;;;30.92;18.13;;;;;;;;;;5052493;28;20420;-69
2021/07/01 07:40:33;;;;;;;33.05;17.25;;;;;;;;;;5053246;28;20055;-69
2021/07/01 07:43:03;;;;;;;28.60;16.48;;;;;;;;;;5053059;28;20072;-68
2021/07/01 07:45:30;;;;;;;32.22;16.00;;;;;;;;;;5052210;28;20048;-68
2021/07/01 07:47:57;;;;;;;29.40;15.43;;;;;;;;;;5057934;28;20504;-68
2021/07/01 07:50:23;;;;;;;27.73;14.18;;;;;;;;;;5073311;28;20044;-68
2021/07/01 07:52:51;;;;;;;27.17;16.80;;;;;;;;;;5072053;28;20033;-68
2021/07/01 07:55:20;;;;;;;24.33;14.40;;;;;;;;;;5072975;28;20040;-68
2021/07/01 07:57:48;;;;;;;24.45;14.43;;;;;;;;;;5072650;28;20116;-68
2021/07/01 08:00:15;;;;;;;31.58;13.88;;;;;;;;;;5071831;28;20113;-68
2021/07/01 08:02:52;;;;;;;26.42;14.50;;;;;;;;;;5072507;28;20090;-68
2021/07/01 08:05:20;;;;;;;26.52;13.70;;;;;;;;;;5050264;28;20118;-68
2021/07/01 08:07:47;;;;;;;30.95;14.32;;;;;;;;;;5066435;28;20514;-68
2021/07/01 08:10:15;;;;;;;28.63;14.70;;;;;;;;;;5072129;28;20041;-68
2021/07/01 08:12:45;;;;;;;30.95;14.68;;;;;;;;;;5071547;28;20396;-68
2021/07/01 08:15:13;;;;;;;26.92;14.35;;;;;;;;;;5072116;28;20063;-68
2021/07/01 08:17:41;;;;;;;30.65;16.92;;;;;;;;;;5072326;28;20053;-68
2021/07/01 08:20:08;;;;;;;32.20;15.88;;;;;;;;;;5071624;28;20045;-68
2021/07/01 08:22:34;;;;;;;34.78;17.33;;;;;;;;;;5058284;28;20135;-68
2021/07/01 08:25:00;;;;;;;33.25;18.42;;;;;;;;;;5072106;28;20040;-69
2021/07/01 08:27:27;;;;;;;30.42;17.52;;;;;;;;;;5071234;28;20476;-68
2021/07/01 08:29:53;;;;;;;31.02;17.77;;;;;;;;;;5072370;28;20044;-68
2021/07/01 08:32:20;;;;;;;30.25;17.17;;;;;;;;;;5071847;28;20040;-69
2021/07/01 08:34:46;;;;;;;32.55;19.00;;;;;;;;;;5071358;28;20400;-68
2021/07/01 08:37:13;;;;;;;29.38;17.77;;;;;;;;;;5071871;28;20048;-68
2021/07/01 08:39:39;;;;;;;31.35;19.58;;;;;;;;;;5071801;28;20048;-68
2021/07/01 08:42:08;;;;;;;33.78;17.42;;;;;;;;;;5071505;28;20174;-68
2021/07/01 08:44:41;;;;;;;31.48;18.38;;;;;;;;;;5072167;28;20044;-69
2021/07/01 08:47:08;;;;;;;31.50;18.45;;;;;;;;;;5071959;28;20102;-68
2021/07/01 08:49:41;;;;;;;37.55;20.05;;;;;;;;;;5049312;28;20049;-68
2021/07/01 08:52:07;;;;;;;29.77;17.52;;;;;;;;;;5062834;28;20102;-68
2021/07/01 08:54:36;;;;;;;32.67;17.13;;;;;;;;;;5070924;28;20055;-68
2021/07/01 08:57:05;;;;;;;31.38;17.23;;;;;;;;;;5071850;28;20048;-68
2021/07/01 08:59:39;;;;;;;32.25;16.88;;;;;;;;;;5071776;28;20055;-69
2021/07/01 09:02:08;;;;;;;31.80;18.40;;;;;;;;;;5070833;28;20412;-69
2021/07/01 09:04:39;;;;;;;32.20;18.40;;;;;;;;;;5071362;28;20044;-68
2021/07/01 09:07:05;;;;;;;35.30;20.27;;;;;;;;;;5071325;28;20484;-69
2021/07/01 09:09:34;;;;;;;36.85;19.85;;;;;;;;;;5070513;28;20064;-69
2021/07/01 09:12:01;;;;;;;35.35;19.38;;;;;;;;;;5071502;28;20051;-69
2021/07/01 09:14:29;;;;;;;39.00;20.15;;;;;;;;;;5071819;28;20056;-69
2021/07/01 09:16:55;;;;;;;33.75;20.73;;;;;;;;;;5070159;28;20063;-68
2021/07/01 09:19:24;;;;;;;37.33;20.52;;;;;;;;;;5070945;28;20487;-69
2021/07/01 09:21:51;;;;;;;35.40;18.58;;;;;;;;;;5070582;28;20067;-69
2021/07/01 09:24:18;;;;;;;35.72;19.63;;;;;;;;;;5070837;28;20036;-68
2021/07/01 09:26:47;;;;;;;36.65;20.15;;;;;;;;;;5070858;28;20318;-68
2021/07/01 09:29:14;;;;;;;36.83;20.92;;;;;;;;;;5071093;28;20048;-68
2021/07/01 09:31:40;;;;;;;34.22;19.88;;;;;;;;;;5070478;28;20049;-69
2021/07/01 09:34:07;;;;;;;37.22;19.05;;;;;;;;;;5070919;28;20412;-69
2021/07/01 09:36:33;;;;;;;37.33;20.55;;;;;;;;;;5070946;28;20123;-69
2021/07/01 09:39:01;;;;;;;35.47;20.42;;;;;;;;;;5070102;28;20144;-69
2021/07/01 09:41:27;;;;;;;33.78;21.05;;;;;;;;;;5070775;28;20495;-69
2021/07/01 09:43:55;;;;;;;31.02;19.20;;;;;;;;;;5070135;28;20041;-69
2021/07/01 09:46:23;;;;;;;27.83;19.30;;;;;;;;;;5070240;28;20044;-69
2021/07/01 09:48:51;;;;;;;35.85;19.10;;;;;;;;;;5049272;28;20068;-71
2021/07/01 09:51:19;;;;;;;29.83;18.90;;;;;;;;;;5068399;28;20072;-69
2021/07/01 09:53:49;;;;;;;30.02;18.95;;;;;;;;;;5070795;28;20044;-70
2021/07/01 09:56:21;;;;;;;35.75;19.95;;;;;;;;;;5070544;28;20063;-69
2021/07/01 09:58:48;;;;;;;33.65;20.17;;;;;;;;;;5069748;28;20040;-69
2021/07/01 10:01:24;;;;;;;29.85;19.00;;;;;;;;;;5070127;28;20059;-69
2021/07/01 10:03:52;;;;;;;27.45;18.55;;;;;;;;;;5049179;28;20037;-69
2021/07/01 10:06:19;;;;;;;31.58;19.25;;;;;;;;;;5065466;28;20061;-69
2021/07/01 10:08:45;;;;;;;32.78;17.90;;;;;;;;;;5070259;28;20053;-69
2021/07/01 10:11:11;;;;;;;27.65;18.15;;;;;;;;;;5070078;28;20048;-70
2021/07/01 10:13:38;;;;;;;32.90;18.55;;;;;;;;;;5069820;28;20087;-70
2021/07/01 10:16:04;;;;;;;30.60;18.92;;;;;;;;;;5070432;28;20060;-69
2021/07/01 10:18:40;;;;;;;29.90;18.58;;;;;;;;;;5069766;28;20475;-70
2021/07/01 10:21:13;;;;;;;25.75;17.58;;;;;;;;;;5069685;28;20049;-70
2021/07/01 10:23:39;;;;;;;26.02;16.05;;;;;;;;;;5070308;28;20120;-70
2021/07/01 10:26:12;;;;;;;31.08;17.70;;;;;;;;;;5069293;28;20095;-69
2021/07/01 10:28:38;;;;;;;28.17;16.67;;;;;;;;;;5070209;28;20044;-69
2021/07/01 10:31:07;;;;;;;26.42;16.25;;;;;;;;;;5069792;28;20109;-69
2021/07/01 10:33:35;;;;;;;29.58;16.42;;;;;;;;;;5069333;28;20098;-68
2021/07/01 10:36:03;;;;;;;29.95;18.17;;;;;;;;;;5069805;28;20051;-69
2021/07/01 10:38:42;;;;;;;32.00;18.45;;;;;;;;;;5069898;28;20121;-69
2021/07/01 10:41:08;;;;;;;29.90;18.05;;;;;;;;;;5069280;28;20056;-72
2021/07/01 10:43:43;;;;;;;28.95;17.45;;;;;;;;;;5069958;28;20528;-69
2021/07/01 10:46:09;;;;;;;23.50;16.75;;;;;;;;;;5069719;28;20048;-69
2021/07/01 10:48:35;;;;;;;27.63;17.30;;;;;;;;;;5068981;28;20396;-69
2021/07/01 10:51:12;;;;;;;29.77;17.58;;;;;;;;;;5069823;28;20060;-69
2021/07/01 10:53:40;;;;;;;30.73;16.08;;;;;;;;;;5048418;28;20399;-69
2021/07/01 10:56:06;;;;;;;25.45;17.15;;;;;;;;;;5064903;28;20453;-70
2021/07/01 10:58:33;;;;;;;25.58;17.10;;;;;;;;;;5069804;28;20147;-69
2021/07/01 11:01:01;;;;;;;28.60;17.63;;;;;;;;;;5069226;28;20045;-69
2021/07/01 11:03:29;;;;;;;26.33;17.48;;;;;;;;;;5069682;28;20056;-69
2021/07/01 11:05:57;;;;;;;23.75;16.52;;;;;;;;;;5069839;28;20044;-69
2021/07/01 11:08:23;;;;;;;27.52;16.40;;;;;;;;;;5068988;28;20110;-69
2021/07/01 11:10:50;;;;;;;27.27;16.38;;;;;;;;;;5069642;28;20074;-69
2021/07/01 11:13:17;;;;;;;25.83;17.25;;;;;;;;;;5069420;28;20596;-69
2021/07/01 11:16:03;;;;;;;23.63;16.83;;;;;;;;;;5069279;28;20060;-69
2021/07/01 11:18:34;;;;;;;28.08;17.33;;;;;;;;;;5069548;28;20048;-69
2021/07/01 11:21:07;;;;;;;28.95;17.20;;;;;;;;;;5069741;28;20075;-69
2021/07/01 11:23:33;;;;;;;27.33;17.95;;;;;;;;;;5068917;28;20135;-70
2021/07/01 11:25:59;;;;;;;29.38;18.17;;;;;;;;;;5069467;28;20067;-69
2021/07/01 11:28:29;;;;;;;25.67;16.63;;;;;;;;;;5069450;28;20510;-70
2021/07/01 11:30:59;;;;;;;24.92;17.33;;;;;;;;;;5068427;28;20055;-70
2021/07/01 11:33:26;;;;;;;25.55;16.42;;;;;;;;;;5069396;28;20429;-69
2021/07/01 11:36:08;;;;;;;25.38;16.23;;;;;;;;;;5069393;28;20535;-69
2021/07/01 11:38:34;;;;;;;25.40;17.05;;;;;;;;;;5069051;28;20071;-69
2021/07/01 11:41:04;;;;;;;29.38;17.40;;;;;;;;;;5069106;28;20044;-69
2021/07/01 11:43:31;;;;;;;28.20;18.48;;;;;;;;;;5069393;28;20080;-69
2021/07/01 11:45:57;;;;;;;29.00;18.40;;;;;;;;;;5072756;28;20076;-69
2021/07/01 11:48:25;;;;;;;25.83;18.80;;;;;;;;;;5072870;28;20045;-69
2021/07/01 11:50:52;;;;;;;32.28;20.10;;;;;;;;;;5071933;28;20049;-69
2021/07/01 11:53:19;;;;;;;29.75;20.10;;;;;;;;;;5072907;28;20170;-69
2021/07/01 11:55:47;;;;;;;27.35;19.73;;;;;;;;;;5072724;28;20511;-68
2021/07/01 11:58:13;;;;;;;34.92;19.95;;;;;;;;;;5072301;28;20055;-68
2021/07/01 12:00:40;;;;;;;23.15;17.35;;;;;;;;;;5072996;28;20048;-68
2021/07/01 12:03:07;;;;;;;28.35;18.83;;;;;;;;;;5072476;28;20547;-68
2021/07/01 12:05:33;;;;;;;31.33;17.95;;;;;;;;;;5072079;28;20044;-69
2021/07/01 12:08:00;;;;;;;24.20;17.10;;;;;;;;;;5072500;28;20048;-68
2021/07/01 12:10:26;;;;;;;27.45;18.13;;;;;;;;;;5072810;28;20128;-68
2021/07/01 12:12:52;;;;;;;31.55;18.48;;;;;;;;;;5071997;28;20053;-68
2021/07/01 12:15:18;;;;;;;31.45;18.33;;;;;;;;;;5072449;28;20052;-68
2021/07/01 12:17:50;;;;;;;27.45;17.95;;;;;;;;;;5051082;28;20112;-68
2021/07/01 12:20:28;;;;;;;31.83;18.85;;;;;;;;;;5066572;28;20044;-68
2021/07/01 12:22:54;;;;;;;30.63;20.25;;;;;;;;;;5072338;28;20103;-68
2021/07/01 12:25:43;;;;;;;28.15;18.92;;;;;;;;;;5072235;28;20068;-68
2021/07/01 12:28:11;;;;;;;31.05;19.63;;;;;;;;;;5072382;28;20139;-68
2021/07/01 12:30:55;;;;;;;31.40;19.95;;;;;;;;;;5072308;28;20425;-68
2021/07/01 12:33:31;;;;;;;30.65;19.67;;;;;;;;;;5071419;28;20472;-68
2021/07/01 12:36:03;;;;;;;30.15;19.08;;;;;;;;;;5072057;28;20257;-69
2021/07/01 12:38:30;;;;;;;39.80;20.42;;;;;;;;;;5072284;28;20056;-69
2021/07/01 12:40:56;;;;;;;38.10;20.30;;;;;;;;;;5071350;28;20037;-68
2021/07/01 12:43:47;;;;;;;38.63;21.33;;;;;;;;;;5071820;28;20048;-68
2021/07/01 12:46:32;;;;;;;33.60;20.10;;;;;;;;;;5071745;28;20124;-68
2021/07/01 12:48:58;;;;;;;39.05;19.58;;;;;;;;;;5071588;28;20048;-68
2021/07/01 12:51:42;;;;;;;33.75;19.92;;;;;;;;;;5071947;28;20040;-68
2021/07/01 12:54:15;;;;;;;41.33;22.88;;;;;;;;;;5071065;28;20070;-68
2021/07/01 12:56:42;;;;;;;34.63;18.98;;;;;;;;;;5071596;28;20093;-69
2021/07/01 12:59:09;;;;;;;29.85;18.60;;;;;;;;;;5071827;28;20044;-69
2021/07/01 13:01:35;;;;;;;32.22;19.10;;;;;;;;;;5070628;28;20044;-69
2021/07/01 13:04:01;;;;;;;33.00;19.42;;;;;;;;;;5071485;28;20052;-68
2021/07/01 13:06:27;;;;;;;35.10;20.13;;;;;;;;;;5071207;28;20045;-69
2021/07/01 13:08:54;;;;;;;33.97;20.17;;;;;;;;;;5070934;28;20072;-68
2021/07/01 13:11:20;;;;;;;30.00;19.50;;;;;;;;;;5071214;28;20056;-68
2021/07/01 13:13:56;;;;;;;30.83;18.70;;;;;;;;;;5071416;28;20089;-68
2021/07/01 13:16:22;;;;;;;30.33;18.52;;;;;;;;;;5070318;28;20101;-69
2021/07/01 13:18:49;;;;;;;31.25;20.33;;;;;;;;;;5071051;28;20044;-69
2021/07/01 13:21:15;;;;;;;31.75;18.80;;;;;;;;;;5071326;28;20108;-69
2021/07/01 13:23:41;;;;;;;35.45;20.73;;;;;;;;;;5070252;28;20162;-69
2021/07/01 13:26:10;;;;;;;34.75;20.08;;;;;;;;;;5071034;28;20052;-69
2021/07/01 13:28:36;;;;;;;33.20;20.27;;;;;;;;;;5049774;28;20143;-69
2021/07/01 13:31:03;;;;;;;39.15;20.63;;;;;;;;;;5069715;28;20036;-69
2021/07/01 13:33:29;;;;;;;33.60;20.20;;;;;;;;;;5070795;28;20063;-69
2021/07/01 13:35:55;;;;;;;36.63;20.38;;;;;;;;;;5069748;28;20040;-69
2021/07/01 13:38:23;;;;;;;35.42;20.40;;;;;;;;;;5070823;28;20108;-69
2021/07/01 13:40:51;;;;;;;32.78;18.50;;;;;;;;;;5070584;28;20045;-69
2021/07/01 13:43:18;;;;;;;30.70;17.10;;;;;;;;;;5070096;28;20112;-69
2021/07/01 13:45:47;;;;;;;33.38;18.02;;;;;;;;;;5070331;28;20045;-69
2021/07/01 13:48:22;;;;;;;33.20;19.75;;;;;;;;;;5070317;28;20048;-69
2021/07/01 13:50:50;;;;;;;33.60;19.75;;;;;;;;;;5048909;28;20075;-69
2021/07/01 13:53:19;;;;;;;36.22;19.50;;;;;;;;;;5070672;28;20052;-69
2021/07/01 13:55:47;;;;;;;35.95;22.45;;;;;;;;;;5070502;28;20161;-69
2021/07/01 13:58:16;;;;;;;35.80;19.55;;;;;;;;;;5069709;28;20082;-69
2021/07/01 14:00:44;;;;;;;34.72;20.30;;;;;;;;;;5070579;28;20139;-69
2021/07/01 14:03:12;;;;;;;33.22;20.65;;;;;;;;;;5070288;28;20476;-69
2021/07/01 14:05:39;;;;;;;35.90;20.27;;;;;;;;;;5069582;28;20044;-69
2021/07/01 14:08:06;;;;;;;35.70;20.55;;;;;;;;;;5069978;28;20047;-70
2021/07/01 14:10:34;;;;;;;33.05;19.13;;;;;;;;;;5070531;28;20049;-69
2021/07/01 14:13:00;;;;;;;30.00;19.88;;;;;;;;;;5069460;28;20055;-69
2021/07/01 14:15:27;;;;;;;42.03;21.88;;;;;;;;;;5070356;28;20456;-70
2021/07/01 14:17:54;;;;;;;35.95;20.98;;;;;;;;;;5070537;28;20136;-70